Time;durP1;ratioP1;P1;durP2;ratioP2;P2;SDS_P1;SDS_P2;PMS_P1;PMS_P2;Temp;Humidity;BMP_temperature;BMP_pressure;BME280_temperature;BME280_humidity;BME280_pressure;Samples;Min_cycle;Max_cycle;Signal;HPM_P1;HPM_P2
2021/07/11 00:02:19;;;;;;;15.32;11.85;;;15.20;99.60;;;;;;4960095;28;20112;-84
2021/07/11 00:04:45;;;;;;;13.48;12.02;;;15.20;99.60;;;;;;4955983;28;20057;-84
2021/07/11 00:07:14;;;;;;;13.95;12.45;;;15.20;99.70;;;;;;4982945;28;20496;-84
2021/07/11 00:09:43;;;;;;;13.48;11.77;;;15.10;99.70;;;;;;4967923;28;20039;-84
2021/07/11 00:12:10;;;;;;;13.40;11.75;;;15.10;99.80;;;;;;4968678;28;20049;-84
2021/07/11 00:14:36;;;;;;;13.13;11.73;;;15.00;99.90;;;;;;4986310;28;20031;-84
2021/07/11 00:17:05;;;;;;;13.48;11.60;;;15.00;99.90;;;;;;4949089;28;20447;-84
2021/07/11 00:19:31;;;;;;;13.85;12.20;;;15.00;99.90;;;;;;4984959;28;20132;-85
2021/07/11 00:21:57;;;;;;;14.55;11.73;;;15.00;99.90;;;;;;4986306;28;20643;-84
2021/07/11 00:24:23;;;;;;;14.95;12.85;;;15.10;99.90;;;;;;4985476;28;20030;-84
2021/07/11 00:26:50;;;;;;;15.15;13.63;;;15.10;99.90;;;;;;4983006;28;20828;-85
2021/07/11 00:29:16;;;;;;;14.70;12.70;;;15.00;99.90;;;;;;4983680;28;20042;-85
2021/07/11 00:31:42;;;;;;;15.00;13.40;;;15.00;99.90;;;;;;4968211;28;20133;-85
2021/07/11 00:34:09;;;;;;;15.48;13.85;;;15.00;99.90;;;;;;4966833;28;20505;-85
2021/07/11 00:36:36;;;;;;;17.35;12.85;;;15.00;99.90;;;;;;4955729;28;20034;-85
2021/07/11 00:39:03;;;;;;;16.48;13.52;;;15.00;99.90;;;;;;4961124;28;20050;-84
2021/07/11 00:41:29;;;;;;;16.38;13.18;;;15.00;99.90;;;;;;4988445;28;20042;-84
2021/07/11 00:44:04;;;;;;;14.52;13.02;;;15.00;99.90;;;;;;4941469;28;20519;-86
2021/07/11 00:46:30;;;;;;;16.92;13.10;;;15.00;99.90;;;;;;4971642;28;20468;-84
2021/07/11 00:48:56;;;;;;;15.32;13.65;;;15.00;99.90;;;;;;4950896;28;20507;-85
2021/07/11 00:51:22;;;;;;;14.77;12.48;;;15.00;99.90;;;;;;4974934;28;20063;-86
2021/07/11 00:53:53;;;;;;;15.25;13.07;;;15.00;99.90;;;;;;4941443;28;20049;-85
2021/07/11 00:56:19;;;;;;;13.77;12.32;;;15.00;99.90;;;;;;4973239;28;20038;-85
2021/07/11 00:58:46;;;;;;;14.30;12.80;;;14.90;99.90;;;;;;4938615;28;20034;-84
2021/07/11 01:01:29;;;;;;;14.30;11.40;;;14.90;99.90;;;;;;4963778;28;20038;-85
2021/07/11 01:04:01;;;;;;;15.25;12.75;;;14.90;99.90;;;;;;4968047;28;20034;-84
2021/07/11 01:06:29;;;;;;;16.40;13.07;;;14.90;99.90;;;;;;4990041;28;20044;-85
2021/07/11 01:09:03;;;;;;;15.68;12.77;;;14.90;99.90;;;;;;4960209;28;20092;-84
2021/07/11 01:11:34;;;;;;;14.75;12.70;;;14.80;99.90;;;;;;4991119;28;20657;-84
2021/07/11 01:14:01;;;;;;;14.75;13.10;;;14.80;99.90;;;;;;4975455;28;20048;-84
2021/07/11 01:16:33;;;;;;;14.82;13.02;;;14.80;99.90;;;;;;4987804;28;20742;-85
2021/07/11 01:19:05;;;;;;;16.35;12.63;;;14.90;99.90;;;;;;4973556;28;20129;-85
2021/07/11 01:21:35;;;;;;;14.90;12.20;;;14.80;99.90;;;;;;4971663;28;20050;-84
2021/07/11 01:24:10;;;;;;;;;;;14.80;99.90;;;;;;4989142;28;20118;-85
2021/07/11 01:26:36;;;;;;;14.75;12.63;;;14.80;99.90;;;;;;4970427;28;19926;-86
2021/07/11 01:29:02;;;;;;;15.45;12.90;;;14.70;99.90;;;;;;4968918;28;20043;-85
2021/07/11 01:31:29;;;;;;;15.65;13.05;;;14.80;99.90;;;;;;4959810;28;20988;-85
2021/07/11 01:33:56;;;;;;;16.05;12.75;;;14.70;99.90;;;;;;4929757;28;20046;-84
2021/07/11 01:36:22;;;;;;;14.88;12.75;;;14.70;99.90;;;;;;4976708;28;20042;-85
2021/07/11 01:38:50;;;;;;;14.68;12.90;;;14.70;99.90;;;;;;4988513;28;20053;-86
2021/07/11 01:41:17;;;;;;;14.73;12.32;;;14.60;99.90;;;;;;5004500;28;20492;-85
2021/07/11 01:43:51;;;;;;;15.30;12.23;;;14.60;99.90;;;;;;4974078;28;20459;-85
2021/07/11 01:46:18;;;;;;;14.23;12.77;;;14.70;99.90;;;;;;4987883;28;20061;-85
2021/07/11 01:48:44;;;;;;;13.93;11.90;;;14.70;99.90;;;;;;4986237;28;20069;-84
2021/07/11 01:51:11;;;;;;;15.05;12.73;;;14.70;99.90;;;;;;4973531;28;20069;-85
2021/07/11 01:53:40;;;;;;;14.80;13.20;;;14.70;99.90;;;;;;4987342;28;20699;-85
2021/07/11 01:56:08;;;;;;;15.52;12.70;;;14.70;99.90;;;;;;4987608;28;20042;-85
2021/07/11 01:58:34;;;;;;;14.65;13.02;;;14.70;99.90;;;;;;4974528;28;20144;-85
2021/07/11 02:01:06;;;;;;;14.07;12.60;;;14.80;99.90;;;;;;4987646;28;20058;-85
2021/07/11 02:03:33;;;;;;;19.17;13.38;;;14.80;99.90;;;;;;4991191;28;20455;-85
2021/07/11 02:05:59;;;;;;;14.02;12.52;;;14.80;99.90;;;;;;4985130;28;20046;-85
2021/07/11 02:08:26;;;;;;;13.93;12.40;;;14.80;99.90;;;;;;4986624;28;20050;-85
2021/07/11 02:10:54;;;;;;;14.63;12.63;;;14.80;99.90;;;;;;4985866;28;20038;-85
2021/07/11 02:13:31;;;;;;;13.82;11.95;;;14.80;99.90;;;;;;4974109;28;20038;-85
2021/07/11 02:16:08;;;;;;;12.63;11.10;;;14.90;99.90;;;;;;5006482;28;20092;-85
2021/07/11 02:18:39;;;;;;;15.20;12.10;;;14.80;99.90;;;;;;4986028;28;20046;-86
2021/07/11 02:21:06;;;;;;;14.50;12.02;;;14.90;99.90;;;;;;4993689;28;20041;-83
2021/07/11 02:23:33;;;;;;;14.50;12.13;;;14.90;99.90;;;;;;4979746;28;20038;-85
2021/07/11 02:26:00;;;;;;;14.88;12.23;;;14.90;99.90;;;;;;4980351;28;20038;-86
2021/07/11 02:28:31;;;;;;;12.45;11.15;;;14.90;99.90;;;;;;4991722;28;20049;-85
2021/07/11 02:31:02;;;;;;;13.88;11.77;;;14.90;99.90;;;;;;4997102;28;20088;-86
2021/07/11 02:33:35;;;;;;;14.55;11.55;;;14.80;99.90;;;;;;4998788;28;20439;-84
2021/07/11 02:36:10;;;;;;;13.70;11.07;;;14.80;99.90;;;;;;4991774;28;20551;-85
2021/07/11 02:39:00;;;;;;;13.70;11.57;;;14.80;99.90;;;;;;4984524;28;20058;-85
2021/07/11 02:41:29;;;;;;;14.82;11.68;;;14.80;99.90;;;;;;4991436;28;20085;-85
2021/07/11 02:43:58;;;;;;;14.30;11.55;;;14.80;99.90;;;;;;5007988;28;20045;-84
2021/07/11 02:46:27;;;;;;;14.38;12.57;;;14.80;99.90;;;;;;4987655;28;20088;-84
2021/07/11 02:48:55;;;;;;;16.50;13.07;;;14.80;99.90;;;;;;5011679;28;20034;-84
2021/07/11 02:51:26;;;;;;;14.98;12.27;;;14.80;99.90;;;;;;4968222;28;20057;-84
2021/07/11 02:53:58;;;;;;;15.20;12.75;;;14.80;99.90;;;;;;4981031;28;20037;-85
2021/07/11 02:56:27;;;;;;;14.13;11.88;;;14.80;99.90;;;;;;4991756;28;20045;-85
2021/07/11 02:58:58;;;;;;;13.67;12.27;;;14.80;99.90;;;;;;4982898;28;20481;-85
2021/07/11 03:01:25;;;;;;;15.82;12.48;;;14.80;99.90;;;;;;5005197;28;20378;-85
2021/07/11 03:03:56;;;;;;;15.13;12.82;;;14.80;99.90;;;;;;4967260;28;20070;-84
2021/07/11 03:06:22;;;;;;;14.18;12.43;;;14.70;99.90;;;;;;4982539;28;20506;-86
2021/07/11 03:08:48;;;;;;;14.93;12.48;;;14.70;99.90;;;;;;4965779;28;20744;-83
2021/07/11 03:11:15;;;;;;;16.65;13.38;;;14.60;99.90;;;;;;4969002;28;20035;-84
2021/07/11 03:13:45;;;;;;;15.65;13.43;;;14.60;99.90;;;;;;4983690;28;20391;-84
2021/07/11 03:16:12;;;;;;;15.27;13.15;;;14.60;99.90;;;;;;4986551;28;20439;-83
2021/07/11 03:18:39;;;;;;;16.17;12.30;;;14.60;99.90;;;;;;4974579;28;20500;-83
2021/07/11 03:21:07;;;;;;;15.13;13.38;;;14.60;99.90;;;;;;4982289;28;20423;-85
2021/07/11 03:23:35;;;;;;;15.18;13.52;;;14.60;99.90;;;;;;4990709;28;20318;-85
2021/07/11 03:26:02;;;;;;;16.17;13.90;;;14.60;99.90;;;;;;5001673;28;20049;-86
2021/07/11 03:28:34;;;;;;;18.23;14.30;;;14.60;99.90;;;;;;4967061;28;20121;-83
2021/07/11 03:31:05;;;;;;;17.80;14.38;;;14.50;99.90;;;;;;4969441;28;20084;-84
2021/07/11 03:33:31;;;;;;;17.83;13.55;;;14.50;99.90;;;;;;4988348;28;20049;-85
2021/07/11 03:36:03;;;;;;;15.73;12.93;;;14.50;99.90;;;;;;4963795;28;20046;-86
2021/07/11 03:38:38;;;;;;;18.98;14.65;;;14.50;99.90;;;;;;4987694;28;20077;-81
2021/07/11 03:41:12;;;;;;;16.08;13.48;;;14.50;99.90;;;;;;5004578;28;20498;-81
2021/07/11 03:43:40;;;;;;;16.35;14.23;;;14.50;99.90;;;;;;5007325;28;20041;-84
2021/07/11 03:46:08;;;;;;;16.45;13.43;;;14.40;99.90;;;;;;4991350;28;20049;-85
2021/07/11 03:49:08;;;;;;;19.58;14.75;;;14.40;99.90;;;;;;5005918;28;20041;-84
2021/07/11 03:51:37;;;;;;;14.50;12.80;;;14.40;99.90;;;;;;4986539;28;20050;-83
2021/07/11 03:54:09;;;;;;;18.02;14.68;;;14.40;99.90;;;;;;4992089;28;20048;-83
2021/07/11 03:56:36;;;;;;;19.60;14.48;;;14.50;99.90;;;;;;5003070;28;20435;-84
2021/07/11 03:59:04;;;;;;;16.50;13.38;;;14.50;99.90;;;;;;4992524;28;20038;-84
2021/07/11 04:01:32;;;;;;;19.80;14.43;;;14.50;99.90;;;;;;4988800;28;20378;-84
2021/07/11 04:04:05;;;;;;;19.55;15.68;;;14.50;99.90;;;;;;4995792;28;20084;-85
2021/07/11 04:06:32;;;;;;;18.50;14.55;;;14.50;99.90;;;;;;4987148;28;20562;-85
2021/07/11 04:09:04;;;;;;;17.73;15.23;;;14.60;99.90;;;;;;4989123;28;20992;-84
2021/07/11 04:11:35;;;;;;;18.50;16.10;;;14.60;99.90;;;;;;5001278;28;20439;-85
2021/07/11 04:14:01;;;;;;;20.88;15.82;;;14.60;99.90;;;;;;4990924;28;20053;-84
2021/07/11 04:16:32;;;;;;;19.73;17.42;;;14.60;99.90;;;;;;4977172;28;20467;-84
2021/07/11 04:19:00;;;;;;;18.10;15.27;;;14.70;99.90;;;;;;5006693;28;20438;-84
2021/07/11 04:21:32;;;;;;;20.48;16.45;;;14.80;99.90;;;;;;5006320;28;20049;-84
2021/07/11 04:23:58;;;;;;;22.58;17.17;;;14.80;99.90;;;;;;4992272;28;20096;-84
2021/07/11 04:26:25;;;;;;;21.48;15.93;;;14.80;99.90;;;;;;4998909;28;20041;-84
2021/07/11 04:28:53;;;;;;;19.02;16.48;;;14.90;99.90;;;;;;4985744;28;20049;-84
2021/07/11 04:31:19;;;;;;;20.67;16.55;;;14.90;99.90;;;;;;4996067;28;20121;-84
2021/07/11 04:33:48;;;;;;;21.67;16.40;;;15.00;99.90;;;;;;5005610;28;20511;-84
2021/07/11 04:36:15;;;;;;;19.25;15.98;;;15.00;99.90;;;;;;5004722;28;20038;-84
2021/07/11 04:38:41;;;;;;;21.73;16.58;;;15.00;99.90;;;;;;4982547;28;20073;-84
2021/07/11 04:41:09;;;;;;;18.92;14.52;;;15.10;99.90;;;;;;4971510;28;20462;-84
2021/07/11 04:43:36;;;;;;;18.70;15.95;;;15.10;99.90;;;;;;4974440;28;20042;-85
2021/07/11 04:46:02;;;;;;;19.75;17.10;;;15.20;99.90;;;;;;4995739;28;20468;-85
2021/07/11 04:48:28;;;;;;;18.58;16.33;;;15.20;99.90;;;;;;4983057;28;20076;-85
2021/07/11 04:50:54;;;;;;;18.90;15.70;;;15.20;99.90;;;;;;4949713;28;20169;-84
2021/07/11 04:53:21;;;;;;;20.90;16.50;;;15.30;99.90;;;;;;4954045;28;20551;-84
2021/07/11 04:55:48;;;;;;;20.52;16.27;;;15.30;99.90;;;;;;5004290;28;20037;-86
2021/07/11 04:58:15;;;;;;;20.67;16.60;;;15.40;99.90;;;;;;4998223;28;20128;-86
2021/07/11 05:00:42;;;;;;;19.08;16.23;;;15.40;99.90;;;;;;4981654;28;20447;-87
2021/07/11 05:03:08;;;;;;;18.70;16.25;;;15.40;99.90;;;;;;4970680;28;20053;-86
2021/07/11 05:05:37;;;;;;;19.23;16.70;;;15.50;99.90;;;;;;5002323;28;20034;-83
2021/07/11 05:08:05;;;;;;;21.23;16.17;;;15.60;99.90;;;;;;4975741;28;20129;-85
2021/07/11 05:10:31;;;;;;;18.45;15.13;;;15.60;99.90;;;;;;4992123;28;20038;-84
2021/07/11 05:12:57;;;;;;;21.20;16.88;;;15.70;99.90;;;;;;5005170;28;20125;-86
2021/07/11 05:15:23;;;;;;;23.35;16.42;;;15.70;99.90;;;;;;4978298;28;20120;-86
2021/07/11 05:17:49;;;;;;;17.95;16.05;;;15.80;99.90;;;;;;5005886;28;20037;-85
2021/07/11 05:20:16;;;;;;;18.55;15.23;;;15.80;99.90;;;;;;5004567;28;20096;-85
2021/07/11 05:22:42;;;;;;;17.63;15.73;;;15.90;99.90;;;;;;4983125;28;20038;-84
2021/07/11 05:25:09;;;;;;;18.13;14.27;;;15.90;99.90;;;;;;4962439;28;20042;-84
2021/07/11 05:27:35;;;;;;;18.75;14.65;;;16.00;99.90;;;;;;4995624;28;20041;-84
2021/07/11 05:30:02;;;;;;;19.30;15.07;;;16.10;99.90;;;;;;4990393;28;21047;-85
2021/07/11 05:32:28;;;;;;;17.25;13.48;;;16.10;99.70;;;;;;4986108;28;20046;-82
2021/07/11 05:34:55;;;;;;;15.18;12.65;;;16.30;99.50;;;;;;4979689;28;20041;-84
2021/07/11 05:37:21;;;;;;;15.85;13.55;;;16.40;99.40;;;;;;4979509;28;20079;-83
2021/07/11 05:39:47;;;;;;;14.38;12.55;;;16.50;99.70;;;;;;4988820;28;20073;-84
2021/07/11 05:42:13;;;;;;;15.68;13.52;;;16.50;99.00;;;;;;4994500;28;20104;-84
2021/07/11 05:44:42;;;;;;;15.90;13.27;;;16.50;98.90;;;;;;4973725;28;20042;-83
2021/07/11 05:47:07;;;;;;;15.20;12.73;;;16.60;98.90;;;;;;4976648;28;20445;-87
2021/07/11 05:49:33;;;;;;;15.73;13.45;;;16.50;98.90;;;;;;4994421;28;20065;-85
2021/07/11 05:52:01;;;;;;;18.35;14.65;;;16.60;98.70;;;;;;4969591;28;20436;-85
2021/07/11 05:54:27;;;;;;;15.35;13.70;;;16.60;98.70;;;;;;4975860;28;20041;-85
2021/07/11 05:56:53;;;;;;;15.02;12.70;;;16.60;98.60;;;;;;4980077;28;20042;-86
2021/07/11 05:59:22;;;;;;;15.40;13.23;;;16.60;98.50;;;;;;5000066;28;20041;-86
2021/07/11 06:01:48;;;;;;;14.88;13.27;;;16.60;98.60;;;;;;4980441;28;20066;-85
2021/07/11 06:04:14;;;;;;;15.48;13.45;;;16.70;98.60;;;;;;4992656;28;20073;-85
2021/07/11 06:06:40;;;;;;;14.98;12.82;;;16.70;98.60;;;;;;4984296;28;20050;-84
2021/07/11 06:09:06;;;;;;;16.42;13.88;;;16.70;98.40;;;;;;4984333;28;20049;-86
2021/07/11 06:11:32;;;;;;;15.85;13.20;;;16.80;98.10;;;;;;4994021;28;20497;-87
2021/07/11 06:13:58;;;;;;;15.85;13.38;;;16.80;98.10;;;;;;4994412;28;20099;-87
2021/07/11 06:16:24;;;;;;;16.35;14.57;;;16.80;98.10;;;;;;5002914;28;20493;-86
2021/07/11 06:18:50;;;;;;;15.88;13.77;;;16.80;98.30;;;;;;5009847;28;20428;-83
2021/07/11 06:21:16;;;;;;;16.95;15.15;;;16.90;98.20;;;;;;4989874;28;20089;-85
2021/07/11 06:23:51;;;;;;;16.25;13.52;;;16.90;98.00;;;;;;4971334;28;20409;-85
2021/07/11 06:26:17;;;;;;;17.10;14.70;;;16.90;97.90;;;;;;4980709;28;20042;-85
2021/07/11 06:28:43;;;;;;;16.58;14.57;;;16.90;98.10;;;;;;4991945;28;20036;-84
2021/07/11 06:31:09;;;;;;;15.52;13.85;;;16.90;98.20;;;;;;4990185;28;20041;-85
2021/07/11 06:33:35;;;;;;;16.10;13.35;;;16.90;98.00;;;;;;4964229;28;20113;-85
2021/07/11 06:36:01;;;;;;;16.02;14.32;;;17.00;98.10;;;;;;4989710;28;20647;-86
2021/07/11 06:38:27;;;;;;;16.27;13.65;;;17.00;97.90;;;;;;4961802;28;20050;-85
2021/07/11 06:40:53;;;;;;;18.55;14.88;;;17.10;98.00;;;;;;4980880;28;20081;-87
2021/07/11 06:43:19;;;;;;;15.30;13.70;;;17.20;98.10;;;;;;4987529;28;20164;-85
2021/07/11 06:45:44;;;;;;;15.57;13.65;;;17.30;97.90;;;;;;4951221;28;20105;-84
2021/07/11 06:48:10;;;;;;;16.13;14.43;;;17.40;97.90;;;;;;4994561;28;20058;-85
2021/07/11 06:50:39;;;;;;;17.30;14.38;;;17.50;97.60;;;;;;5003092;28;20069;-87
2021/07/11 06:53:05;;;;;;;16.13;13.85;;;17.60;97.50;;;;;;4961225;28;20080;-87
2021/07/11 06:55:31;;;;;;;16.23;14.07;;;17.60;97.30;;;;;;4993980;28;20058;-86
2021/07/11 06:57:57;;;;;;;16.38;13.75;;;17.70;97.40;;;;;;4993684;28;20042;-85
2021/07/11 07:00:23;;;;;;;14.35;12.57;;;17.80;97.30;;;;;;4941183;28;20049;-85
2021/07/11 07:02:49;;;;;;;19.83;12.88;;;17.90;97.30;;;;;;4976188;28;20504;-85
2021/07/11 07:05:15;;;;;;;15.50;12.75;;;18.00;97.30;;;;;;4966875;28;20133;-87
2021/07/11 07:07:41;;;;;;;16.35;12.55;;;18.20;97.10;;;;;;4972572;28;20120;-86
2021/07/11 07:10:13;;;;;;;14.15;12.43;;;18.30;96.90;;;;;;4966743;28;20544;-85
2021/07/11 07:12:40;;;;;;;14.27;11.35;;;18.40;96.60;;;;;;4983255;28;20069;-86
2021/07/11 07:15:07;;;;;;;13.43;11.90;;;18.50;96.40;;;;;;5005061;28;20114;-84
2021/07/11 07:17:33;;;;;;;15.25;11.43;;;18.60;96.40;;;;;;4995940;28;20112;-86
2021/07/11 07:20:00;;;;;;;13.55;11.55;;;18.70;96.10;;;;;;4973532;28;20057;-85
2021/07/11 07:22:26;;;;;;;13.10;11.35;;;18.80;96.10;;;;;;5004617;28;20555;-87
2021/07/11 07:24:52;;;;;;;14.82;12.27;;;18.90;95.90;;;;;;4962415;28;20637;-86
2021/07/11 07:27:18;;;;;;;12.60;11.27;;;19.00;95.80;;;;;;4955984;28;20088;-88
2021/07/11 07:29:44;;;;;;;14.15;11.60;;;19.10;95.60;;;;;;4973344;28;20034;-83
2021/07/11 07:32:10;;;;;;;13.23;11.82;;;19.30;95.40;;;;;;4970750;28;20089;-83
2021/07/11 07:34:36;;;;;;;13.57;12.20;;;19.40;95.30;;;;;;4987087;28;20038;-85
2021/07/11 07:37:02;;;;;;;15.23;12.70;;;19.50;94.80;;;;;;4970561;28;20073;-85
2021/07/11 07:39:29;;;;;;;14.38;12.88;;;19.60;94.60;;;;;;4984128;28;20505;-84
2021/07/11 07:41:55;;;;;;;14.23;12.73;;;19.60;94.30;;;;;;4999663;28;20042;-88
2021/07/11 07:44:21;;;;;;;14.27;12.68;;;19.60;94.50;;;;;;4985862;28;20050;-87
2021/07/11 07:46:47;;;;;;;14.25;12.77;;;19.60;94.70;;;;;;4997661;28;20049;-87
2021/07/11 07:49:13;;;;;;;14.93;12.80;;;19.70;94.50;;;;;;4970641;28;20050;-86
2021/07/11 07:51:40;;;;;;;13.75;12.38;;;19.80;94.20;;;;;;4971753;28;20072;-84
2021/07/11 07:54:06;;;;;;;14.23;12.82;;;19.90;94.10;;;;;;4980942;28;20050;-88
2021/07/11 07:56:32;;;;;;;14.65;13.05;;;20.00;93.90;;;;;;4999927;28;20093;-89
2021/07/11 07:58:58;;;;;;;13.77;11.75;;;20.10;94.10;;;;;;4986575;28;20041;-87
2021/07/11 08:01:24;;;;;;;13.73;12.35;;;20.20;94.10;;;;;;4980459;28;20136;-88
2021/07/11 08:03:51;;;;;;;14.77;13.18;;;20.40;94.00;;;;;;4989141;28;20092;-86
2021/07/11 08:06:17;;;;;;;14.32;12.80;;;20.60;93.30;;;;;;4967669;28;20042;-85
2021/07/11 08:08:43;;;;;;;15.00;12.93;;;20.60;92.80;;;;;;4967705;28;20089;-88
2021/07/11 08:11:10;;;;;;;14.07;12.48;;;20.70;92.80;;;;;;4944283;28;20058;-90
2021/07/11 08:13:37;;;;;;;13.25;11.85;;;20.80;92.60;;;;;;4989103;28;20042;-87
2021/07/11 08:16:07;;;;;;;13.60;11.70;;;21.00;92.40;;;;;;4986556;28;20393;-86
2021/07/11 08:18:33;;;;;;;12.80;11.50;;;21.10;92.10;;;;;;4989756;28;20125;-88
2021/07/11 08:20:59;;;;;;;16.45;13.48;;;21.20;92.00;;;;;;4968318;28;20481;-85
2021/07/11 08:23:25;;;;;;;15.32;11.75;;;21.20;91.60;;;;;;5001122;28;20084;-86
2021/07/11 08:25:51;;;;;;;13.65;12.25;;;21.30;91.90;;;;;;4967953;28;20060;-87
2021/07/11 08:28:17;;;;;;;11.45;10.35;;;21.50;91.80;;;;;;4965914;28;20472;-88
2021/07/11 08:30:46;;;;;;;11.55;10.35;;;21.50;91.60;;;;;;4998578;28;21299;-87
2021/07/11 08:33:12;;;;;;;13.93;10.80;;;21.60;91.60;;;;;;4968770;28;20033;-88
2021/07/11 08:35:39;;;;;;;12.77;11.48;;;21.70;91.30;;;;;;4987168;28;20431;-84
2021/07/11 08:38:05;;;;;;;12.35;11.15;;;21.70;91.30;;;;;;4986116;28;20121;-87
2021/07/11 08:40:35;;;;;;;14.77;13.13;;;21.80;90.60;;;;;;4972205;28;20447;-87
2021/07/11 08:43:03;;;;;;;;;;;21.80;90.70;;;;;;4967257;28;20046;-90
2021/07/11 08:45:33;;;;;;;12.35;11.15;;;21.90;91.00;;;;;;4985913;28;20118;-87
2021/07/11 08:47:59;;;;;;;12.15;10.73;;;22.00;90.70;;;;;;4989607;28;20492;-87
2021/07/11 08:50:25;;;;;;;13.00;11.65;;;22.10;90.80;;;;;;4988248;28;20115;-88
2021/07/11 08:52:52;;;;;;;13.70;11.80;;;22.10;90.30;;;;;;5005155;28;20038;-85
2021/07/11 08:55:24;;;;;;;12.70;10.57;;;22.10;90.10;;;;;;4984383;28;20061;-87
2021/07/11 08:57:56;;;;;;;13.70;12.30;;;22.10;90.20;;;;;;4988445;28;20065;-89
2021/07/11 09:00:30;;;;;;;12.80;11.48;;;22.20;89.10;;;;;;4968695;28;20042;-86
2021/07/11 09:02:56;;;;;;;13.13;10.73;;;22.30;88.90;;;;;;4984066;28;20070;-89
2021/07/11 09:05:26;;;;;;;13.38;10.52;;;22.40;90.00;;;;;;4983002;28;20945;-88
2021/07/11 09:08:04;;;;;;;12.38;11.02;;;22.70;90.20;;;;;;4986960;28;20096;-87
2021/07/11 09:10:40;;;;;;;12.60;10.95;;;22.90;89.60;;;;;;4999501;28;20049;-88
2021/07/11 09:13:16;;;;;;;13.20;10.75;;;23.00;88.50;;;;;;4981868;28;20080;-91
2021/07/11 09:15:47;;;;;;;14.10;10.60;;;23.20;86.50;;;;;;4988260;28;20041;-84
2021/07/11 09:18:14;;;;;;;12.63;11.32;;;23.20;86.90;;;;;;5004030;28;20065;-87
2021/07/11 09:20:53;;;;;;;11.95;10.63;;;23.30;84.70;;;;;;4988395;28;20146;-87
2021/07/11 09:23:20;;;;;;;12.70;11.38;;;23.20;84.00;;;;;;4984177;28;20042;-86
2021/07/11 09:26:19;;;;;;;13.48;12.18;;;23.00;84.60;;;;;;4987262;28;20045;-85
2021/07/11 09:28:50;;;;;;;12.15;10.85;;;22.70;83.80;;;;;;4976452;28;20486;-86
2021/07/11 09:31:19;;;;;;;11.05;9.95;;;22.60;86.60;;;;;;4995963;28;20046;-86
2021/07/11 09:33:56;;;;;;;11.13;10.02;;;22.60;87.10;;;;;;4987463;28;20521;-86
2021/07/11 09:36:23;;;;;;;12.80;11.05;;;22.40;87.20;;;;;;4983835;28;20137;-87
2021/07/11 09:38:52;;;;;;;12.65;11.45;;;22.30;87.70;;;;;;4969821;28;20054;-85
2021/07/11 09:41:44;;;;;;;12.32;10.98;;;22.20;87.90;;;;;;4984209;28;20065;-84
2021/07/11 09:44:10;;;;;;;11.88;10.32;;;22.10;88.40;;;;;;4975251;28;20043;-88
2021/07/11 09:46:36;;;;;;;11.18;9.57;;;22.00;89.10;;;;;;4999570;28;20100;-85
2021/07/11 09:49:14;;;;;;;12.38;11.07;;;22.00;89.80;;;;;;4964508;28;20042;-86
2021/07/11 09:51:40;;;;;;;13.68;12.38;;;21.90;89.50;;;;;;4998298;28;20057;-85
2021/07/11 09:54:09;;;;;;;12.90;11.60;;;21.80;89.20;;;;;;4974013;28;20042;-87
2021/07/11 09:56:39;;;;;;;13.82;12.38;;;21.80;89.00;;;;;;5011931;28;20089;-88
2021/07/11 09:59:08;;;;;;;13.68;12.27;;;21.70;89.00;;;;;;4975230;28;20470;-87
2021/07/11 10:01:37;;;;;;;13.50;12.20;;;21.70;89.00;;;;;;4984020;28;20046;-86
2021/07/11 10:04:04;;;;;;;12.52;11.32;;;21.70;89.70;;;;;;4990241;28;20069;-85
2021/07/11 10:06:38;;;;;;;12.00;9.93;;;21.70;89.60;;;;;;4979404;28;20056;-87
2021/07/11 10:09:06;;;;;;;11.68;10.48;;;21.70;90.00;;;;;;4993992;28;20079;-88
2021/07/11 10:11:34;;;;;;;12.80;11.50;;;21.70;90.20;;;;;;4978579;28;20042;-86
2021/07/11 10:14:00;;;;;;;12.85;11.50;;;21.70;90.20;;;;;;4999521;28;20033;-86
2021/07/11 10:16:28;;;;;;;11.68;10.48;;;21.70;90.30;;;;;;4995113;28;20081;-88
2021/07/11 10:18:56;;;;;;;12.48;11.18;;;21.70;90.30;;;;;;4992290;28;20050;-84
2021/07/11 10:21:28;;;;;;;12.82;11.52;;;21.80;90.30;;;;;;4997396;28;20057;-86
2021/07/11 10:23:56;;;;;;;13.35;11.30;;;21.80;90.20;;;;;;4995718;28;20375;-86
2021/07/11 10:26:41;;;;;;;13.05;11.75;;;21.80;90.30;;;;;;4975163;28;20053;-88
2021/07/11 10:29:12;;;;;;;12.55;11.25;;;21.90;90.30;;;;;;4991431;28;20129;-87
2021/07/11 10:31:48;;;;;;;12.90;11.50;;;21.90;90.00;;;;;;4973191;28;20072;-86
2021/07/11 10:34:31;;;;;;;12.98;11.68;;;21.90;90.00;;;;;;5008217;28;20385;-87
2021/07/11 10:36:57;;;;;;;12.60;11.38;;;21.90;90.20;;;;;;4988049;28;20035;-87
2021/07/11 10:39:34;;;;;;;12.38;11.18;;;22.00;90.40;;;;;;5004038;28;20074;-89
2021/07/11 10:42:01;;;;;;;12.52;11.25;;;22.10;90.10;;;;;;4982838;28;20132;-86
2021/07/11 10:44:27;;;;;;;13.25;11.13;;;22.10;89.60;;;;;;4970010;28;20049;-86
2021/07/11 10:47:04;;;;;;;12.38;11.10;;;22.20;89.30;;;;;;4975147;28;20044;-88
2021/07/11 10:49:49;;;;;;;11.95;10.85;;;22.20;89.10;;;;;;4997168;28;20064;-86
2021/07/11 10:52:27;;;;;;;13.02;10.60;;;22.30;88.90;;;;;;4971209;28;20052;-89
2021/07/11 10:54:55;;;;;;;11.05;9.80;;;22.40;89.00;;;;;;4985804;28;20081;-90
2021/07/11 10:57:31;;;;;;;11.70;10.23;;;22.50;89.50;;;;;;4989631;28;20039;-88
2021/07/11 11:00:09;;;;;;;13.07;11.35;;;22.60;89.20;;;;;;4990503;28;20064;-86
2021/07/11 11:02:35;;;;;;;12.70;11.02;;;22.70;88.30;;;;;;5001461;28;20057;-86
2021/07/11 11:05:12;;;;;;;12.90;10.43;;;22.70;87.50;;;;;;4984974;28;20073;-86
2021/07/11 11:07:48;;;;;;;13.15;10.70;;;22.60;88.30;;;;;;4976244;28;20121;-86
2021/07/11 11:10:31;;;;;;;11.38;10.27;;;22.70;88.40;;;;;;4980970;28;20661;-87
2021/07/11 11:13:12;;;;;;;12.75;11.43;;;22.70;87.60;;;;;;4962085;28;20400;-89
2021/07/11 11:15:43;;;;;;;12.60;11.32;;;22.70;87.40;;;;;;5002194;28;20046;-86
2021/07/11 11:18:22;;;;;;;12.30;10.00;;;22.70;86.70;;;;;;5012493;28;20092;-86
2021/07/11 11:20:56;;;;;;;12.60;10.80;;;22.60;87.30;;;;;;4985518;28;20053;-88
2021/07/11 11:23:22;;;;;;;12.55;11.07;;;22.60;87.70;;;;;;4985156;28;20292;-88
2021/07/11 11:25:49;;;;;;;12.15;10.55;;;22.50;89.70;;;;;;4975431;28;20043;-87
2021/07/11 11:28:29;;;;;;;12.55;11.00;;;22.40;88.80;;;;;;5011838;28;20125;-88
2021/07/11 11:31:28;;;;;;;12.38;10.77;;;22.40;88.90;;;;;;5004427;28;20185;-85
2021/07/11 11:34:04;;;;;;;13.38;11.85;;;22.30;89.50;;;;;;4978254;28;20073;-89
2021/07/11 11:36:32;;;;;;;12.43;11.23;;;22.40;89.60;;;;;;5004827;28;20040;-87
2021/07/11 11:39:02;;;;;;;14.27;10.57;;;22.30;89.60;;;;;;4990829;28;20058;-86
2021/07/11 11:41:28;;;;;;;12.65;11.20;;;22.40;89.90;;;;;;4984728;28;20077;-87
2021/07/11 11:44:17;;;;;;;11.93;10.70;;;22.30;90.10;;;;;;4965261;28;20061;-87
2021/07/11 11:46:47;;;;;;;13.20;11.80;;;22.30;90.40;;;;;;4997496;28;20124;-88
2021/07/11 11:49:19;;;;;;;12.45;11.18;;;22.30;90.30;;;;;;4989903;28;20447;-88
2021/07/11 11:51:56;;;;;;;13.23;10.90;;;22.30;90.10;;;;;;4971192;28;20083;-85
2021/07/11 11:54:33;;;;;;;12.10;10.32;;;22.20;90.00;;;;;;4984516;28;20036;-86
2021/07/11 11:57:00;;;;;;;10.88;9.77;;;22.20;90.20;;;;;;4990017;28;20082;-85
2021/07/11 11:59:27;;;;;;;10.25;9.23;;;22.20;90.50;;;;;;4990391;28;20068;-84
2021/07/11 12:01:58;;;;;;;12.20;10.98;;;22.20;90.90;;;;;;4946316;28;20074;-87
2021/07/11 12:04:27;;;;;;;13.43;12.05;;;22.20;91.00;;;;;;4982589;28;20062;-88
2021/07/11 12:07:04;;;;;;;;;;;;;;;;;;;;;
2021/07/11 12:10:39;;;;;;;;;;;;;;;;;;;;;
2021/07/11 12:13:47;;;;;;;14.55;13.15;;;22.20;92.20;;;;;;4997426;28;20536;-87
2021/07/11 12:16:17;;;;;;;15.45;13.95;;;22.20;92.50;;;;;;4987278;28;20050;-84
2021/07/11 12:18:51;;;;;;;15.13;13.68;;;22.20;92.00;;;;;;4990354;28;20041;-87
2021/07/11 12:22:00;;;;;;;;;;;;;;;;;;;;;
2021/07/11 12:28:23;;;;;;;14.45;13.15;;;22.10;92.00;;;;;;4948414;28;20070;-86
2021/07/11 12:34:17;;;;;;;15.20;13.63;;;22.10;92.20;;;;;;4981026;28;20574;-85
2021/07/11 12:37:24;;;;;;;14.20;12.90;;;22.10;91.70;;;;;;4965814;28;20120;-87
2021/07/11 12:39:52;;;;;;;14.93;13.43;;;22.00;91.60;;;;;;4963857;28;20054;-86
2021/07/11 12:42:35;;;;;;;13.40;12.10;;;22.00;91.70;;;;;;4967744;28;20081;-87
2021/07/11 12:45:32;;;;;;;15.43;13.75;;;22.10;92.30;;;;;;4966432;28;20692;-86
2021/07/11 12:47:58;;;;;;;13.90;12.50;;;22.10;92.30;;;;;;4954506;28;20404;-85
2021/07/11 12:50:46;;;;;;;14.98;13.68;;;22.20;92.00;;;;;;4982906;28;20057;-87
2021/07/11 12:53:32;;;;;;;14.35;12.93;;;22.30;91.30;;;;;;4967009;28;20089;-87